sensor_id;sensor_type;location;lat;lon;timestamp;temperature;humidity
35027;DHT22;60696;51.426;6.934;2024-02-23T05:01:29;5.50;33.10
35027;DHT22;60696;51.426;6.934;2024-02-23T05:03:59;5.50;22.30
35027;DHT22;60696;51.426;6.934;2024-02-23T05:06:25;5.60;4.80
35027;DHT22;60696;51.426;6.934;2024-02-23T05:08:51;5.60;1.00
35027;DHT22;60696;51.426;6.934;2024-02-23T05:11:17;5.60;1.00
35027;DHT22;60696;51.426;6.934;2024-02-23T05:13:42;5.60;1.00
35027;DHT22;60696;51.426;6.934;2024-02-23T05:16:08;5.60;1.00
35027;DHT22;60696;51.426;6.934;2024-02-23T05:18:33;5.60;28.20
35027;DHT22;60696;51.426;6.934;2024-02-23T05:21:00;5.60;1.00
35027;DHT22;60696;51.426;6.934;2024-02-23T05:23:26;5.60;1.00
35027;DHT22;60696;51.426;6.934;2024-02-23T05:25:51;5.60;2.40
35027;DHT22;60696;51.426;6.934;2024-02-23T05:28:17;5.60;1.00
35027;DHT22;60696;51.426;6.934;2024-02-23T05:30:42;5.60;1.00
35027;DHT22;60696;51.426;6.934;2024-02-23T05:33:08;5.50;15.80
35027;DHT22;60696;51.426;6.934;2024-02-23T05:35:33;5.60;32.50
35027;DHT22;60696;51.426;6.934;2024-02-23T05:37:59;5.60;1.50
35027;DHT22;60696;51.426;6.934;2024-02-23T05:40:25;5.70;1.00
35027;DHT22;60696;51.426;6.934;2024-02-23T05:42:50;5.70;1.00
35027;DHT22;60696;51.426;6.934;2024-02-23T05:45:16;5.70;1.00
35027;DHT22;60696;51.426;6.934;2024-02-23T05:47:41;5.70;1.00
35027;DHT22;60696;51.426;6.934;2024-02-23T05:50:10;5.70;1.00
35027;DHT22;60696;51.426;6.934;2024-02-23T05:52:35;5.70;1.00
35027;DHT22;60696;51.426;6.934;2024-02-23T05:55:05;5.60;1.00
35027;DHT22;60696;51.426;6.934;2024-02-23T05:57:30;5.60;1.00
35027;DHT22;60696;51.426;6.934;2024-02-23T05:59:56;5.60;1.00
35027;DHT22;60696;51.426;6.934;2024-02-23T06:02:22;5.70;1.00
35027;DHT22;60696;51.426;6.934;2024-02-23T06:04:48;5.60;1.00
35027;DHT22;60696;51.426;6.934;2024-02-23T06:07:14;5.60;1.00
35027;DHT22;60696;51.426;6.934;2024-02-23T06:09:43;5.60;1.00
35027;DHT22;60696;51.426;6.934;2024-02-23T06:12:09;5.60;1.00
35027;DHT22;60696;51.426;6.934;2024-02-23T06:14:35;5.60;1.00
35027;DHT22;60696;51.426;6.934;2024-02-23T06:17:01;5.60;1.00
35027;DHT22;60696;51.426;6.934;2024-02-23T06:19:27;5.70;1.00
35027;DHT22;60696;51.426;6.934;2024-02-23T06:21:52;5.70;1.00
35027;DHT22;60696;51.426;6.934;2024-02-23T06:24:18;5.70;1.00
35027;DHT22;60696;51.426;6.934;2024-02-23T06:26:45;5.60;1.00
35027;DHT22;60696;51.426;6.934;2024-02-23T06:29:11;5.60;1.00
35027;DHT22;60696;51.426;6.934;2024-02-23T06:31:38;5.70;1.00
35027;DHT22;60696;51.426;6.934;2024-02-23T06:34:05;5.70;1.00
35027;DHT22;60696;51.426;6.934;2024-02-23T06:36:31;5.70;1.00
35027;DHT22;60696;51.426;6.934;2024-02-23T06:38:56;5.70;1.00
35027;DHT22;60696;51.426;6.934;2024-02-23T06:41:22;5.70;1.00
35027;DHT22;60696;51.426;6.934;2024-02-23T06:43:48;5.60;1.00
35027;DHT22;60696;51.426;6.934;2024-02-23T06:46:13;5.60;1.00
35027;DHT22;60696;51.426;6.934;2024-02-23T06:48:39;5.70;1.00
35027;DHT22;60696;51.426;6.934;2024-02-23T06:51:05;5.70;1.00
35027;DHT22;60696;51.426;6.934;2024-02-23T06:53:34;5.70;1.00
35027;DHT22;60696;51.426;6.934;2024-02-23T06:56:00;5.60;1.00
35027;DHT22;60696;51.426;6.934;2024-02-23T06:58:26;5.60;1.00
35027;DHT22;60696;51.426;6.934;2024-02-23T07:00:52;5.50;1.00
35027;DHT22;60696;51.426;6.934;2024-02-23T07:03:18;5.50;1.00
35027;DHT22;60696;51.426;6.934;2024-02-23T07:05:43;5.50;1.00
35027;DHT22;60696;51.426;6.934;2024-02-23T07:08:10;5.50;1.00
35027;DHT22;60696;51.426;6.934;2024-02-23T07:10:36;5.60;1.00
35027;DHT22;60696;51.426;6.934;2024-02-23T07:13:02;5.60;1.00
35027;DHT22;60696;51.426;6.934;2024-02-23T07:15:27;5.70;1.00
35027;DHT22;60696;51.426;6.934;2024-02-23T07:17:53;5.80;1.00
35027;DHT22;60696;51.426;6.934;2024-02-23T07:20:18;5.90;1.00
35027;DHT22;60696;51.426;6.934;2024-02-23T07:22:45;6.00;1.00
35027;DHT22;60696;51.426;6.934;2024-02-23T07:25:11;6.10;1.00
35027;DHT22;60696;51.426;6.934;2024-02-23T07:27:37;6.10;1.00
35027;DHT22;60696;51.426;6.934;2024-02-23T07:30:02;6.00;1.00
35027;DHT22;60696;51.426;6.934;2024-02-23T07:32:30;5.90;1.00
35027;DHT22;60696;51.426;6.934;2024-02-23T07:34:55;5.90;1.00
35027;DHT22;60696;51.426;6.934;2024-02-23T07:37:21;5.90;1.00
35027;DHT22;60696;51.426;6.934;2024-02-23T07:39:47;5.90;1.00
35027;DHT22;60696;51.426;6.934;2024-02-23T07:42:12;5.90;1.00
35027;DHT22;60696;51.426;6.934;2024-02-23T07:44:40;6.00;1.00
35027;DHT22;60696;51.426;6.934;2024-02-23T07:47:05;6.10;1.00
35027;DHT22;60696;51.426;6.934;2024-02-23T07:49:31;6.20;1.00
35027;DHT22;60696;51.426;6.934;2024-02-23T07:51:57;6.20;1.00
35027;DHT22;60696;51.426;6.934;2024-02-23T07:54:22;6.30;1.00
35027;DHT22;60696;51.426;6.934;2024-02-23T07:56:48;6.50;1.00
35027;DHT22;60696;51.426;6.934;2024-02-23T07:59:14;6.60;1.00
35027;DHT22;60696;51.426;6.934;2024-02-23T08:01:39;6.70;1.00
35027;DHT22;60696;51.426;6.934;2024-02-23T08:04:08;6.90;1.00
35027;DHT22;60696;51.426;6.934;2024-02-23T08:06:33;7.10;1.00
35027;DHT22;60696;51.426;6.934;2024-02-23T08:08:59;7.80;1.00
35027;DHT22;60696;51.426;6.934;2024-02-23T08:11:25;8.50;1.00
35027;DHT22;60696;51.426;6.934;2024-02-23T08:13:50;8.70;99.90
35027;DHT22;60696;51.426;6.934;2024-02-23T08:16:16;9.10;99.90
35027;DHT22;60696;51.426;6.934;2024-02-23T08:18:42;9.30;99.90
35027;DHT22;60696;51.426;6.934;2024-02-23T08:21:10;9.20;99.90
35027;DHT22;60696;51.426;6.934;2024-02-23T08:23:36;8.80;99.90
35027;DHT22;60696;51.426;6.934;2024-02-23T08:26:02;9.10;99.90
35027;DHT22;60696;51.426;6.934;2024-02-23T08:28:27;9.10;99.90
35027;DHT22;60696;51.426;6.934;2024-02-23T08:30:53;9.50;99.90
35027;DHT22;60696;51.426;6.934;2024-02-23T08:33:19;9.80;99.90
35027;DHT22;60696;51.426;6.934;2024-02-23T08:35:45;10.10;99.90
35027;DHT22;60696;51.426;6.934;2024-02-23T08:38:11;10.00;99.90
35027;DHT22;60696;51.426;6.934;2024-02-23T08:40:37;10.20;99.90
35027;DHT22;60696;51.426;6.934;2024-02-23T08:43:02;10.10;99.90
35027;DHT22;60696;51.426;6.934;2024-02-23T08:45:28;9.90;99.90
35027;DHT22;60696;51.426;6.934;2024-02-23T08:47:54;9.60;99.90
35027;DHT22;60696;51.426;6.934;2024-02-23T08:50:19;9.30;99.90
35027;DHT22;60696;51.426;6.934;2024-02-23T08:52:45;8.90;99.90
35027;DHT22;60696;51.426;6.934;2024-02-23T08:55:11;8.50;99.90
35027;DHT22;60696;51.426;6.934;2024-02-23T08:57:37;8.10;99.90
35027;DHT22;60696;51.426;6.934;2024-02-23T09:00:06;7.90;99.90
35027;DHT22;60696;51.426;6.934;2024-02-23T09:02:35;7.70;99.90
35027;DHT22;60696;51.426;6.934;2024-02-23T09:05:03;7.50;99.90
35027;DHT22;60696;51.426;6.934;2024-02-23T09:10:04;7.80;99.90
35027;DHT22;60696;51.426;6.934;2024-02-23T09:12:30;8.70;99.90
35027;DHT22;60696;51.426;6.934;2024-02-23T09:14:56;9.00;99.90
35027;DHT22;60696;51.426;6.934;2024-02-23T09:17:21;8.60;99.90
35027;DHT22;60696;51.426;6.934;2024-02-23T09:19:48;8.20;99.90
35027;DHT22;60696;51.426;6.934;2024-02-23T09:22:14;8.10;99.90
35027;DHT22;60696;51.426;6.934;2024-02-23T09:24:41;8.00;99.90
35027;DHT22;60696;51.426;6.934;2024-02-23T09:27:07;7.90;99.90
35027;DHT22;60696;51.426;6.934;2024-02-23T09:29:33;8.30;99.90
35027;DHT22;60696;51.426;6.934;2024-02-23T09:31:59;8.30;99.90
35027;DHT22;60696;51.426;6.934;2024-02-23T09:34:25;8.20;99.90
35027;DHT22;60696;51.426;6.934;2024-02-23T09:36:51;8.20;99.90
35027;DHT22;60696;51.426;6.934;2024-02-23T09:39:17;8.30;99.90
35027;DHT22;60696;51.426;6.934;2024-02-23T09:41:43;8.30;99.90
35027;DHT22;60696;51.426;6.934;2024-02-23T09:44:09;8.20;99.90
35027;DHT22;60696;51.426;6.934;2024-02-23T09:46:40;8.20;99.90
35027;DHT22;60696;51.426;6.934;2024-02-23T09:49:11;8.20;99.90
35027;DHT22;60696;51.426;6.934;2024-02-23T09:51:39;8.10;99.90
35027;DHT22;60696;51.426;6.934;2024-02-23T09:54:05;8.00;99.90
35027;DHT22;60696;51.426;6.934;2024-02-23T09:56:31;7.90;99.90
35027;DHT22;60696;51.426;6.934;2024-02-23T09:59:00;7.80;99.90
35027;DHT22;60696;51.426;6.934;2024-02-23T10:01:31;7.90;99.90
35027;DHT22;60696;51.426;6.934;2024-02-23T10:03:59;7.90;99.90
35027;DHT22;60696;51.426;6.934;2024-02-23T10:06:25;7.80;99.90
35027;DHT22;60696;51.426;6.934;2024-02-23T10:08:51;7.70;99.90
35027;DHT22;60696;51.426;6.934;2024-02-23T10:11:24;7.70;99.90
35027;DHT22;60696;51.426;6.934;2024-02-23T10:13:50;7.90;99.90
35027;DHT22;60696;51.426;6.934;2024-02-23T10:16:17;8.00;99.90
35027;DHT22;60696;51.426;6.934;2024-02-23T10:18:43;8.00;99.90
35027;DHT22;60696;51.426;6.934;2024-02-23T10:21:09;8.00;99.90
35027;DHT22;60696;51.426;6.934;2024-02-23T10:23:35;8.00;99.90
35027;DHT22;60696;51.426;6.934;2024-02-23T10:26:00;8.10;99.90
35027;DHT22;60696;51.426;6.934;2024-02-23T10:28:27;8.30;99.90
35027;DHT22;60696;51.426;6.934;2024-02-23T10:30:53;8.40;99.90
35027;DHT22;60696;51.426;6.934;2024-02-23T10:33:22;8.40;99.90
35027;DHT22;60696;51.426;6.934;2024-02-23T10:35:53;8.30;99.90
35027;DHT22;60696;51.426;6.934;2024-02-23T10:38:20;8.20;99.90
35027;DHT22;60696;51.426;6.934;2024-02-23T10:40:47;8.00;99.90
35027;DHT22;60696;51.426;6.934;2024-02-23T10:43:19;8.10;99.90
35027;DHT22;60696;51.426;6.934;2024-02-23T10:45:46;8.30;99.90
35027;DHT22;60696;51.426;6.934;2024-02-23T10:48:12;8.50;99.90
35027;DHT22;60696;51.426;6.934;2024-02-23T10:50:40;8.60;99.90
35027;DHT22;60696;51.426;6.934;2024-02-23T10:53:07;8.80;99.90
35027;DHT22;60696;51.426;6.934;2024-02-23T10:55:37;8.70;99.90
35027;DHT22;60696;51.426;6.934;2024-02-23T10:58:02;8.40;99.90
35027;DHT22;60696;51.426;6.934;2024-02-23T11:00:29;8.30;99.90
35027;DHT22;60696;51.426;6.934;2024-02-23T11:02:55;8.30;99.90
35027;DHT22;60696;51.426;6.934;2024-02-23T11:05:22;8.40;99.90
35027;DHT22;60696;51.426;6.934;2024-02-23T11:07:49;8.40;99.90
35027;DHT22;60696;51.426;6.934;2024-02-23T11:10:16;8.30;99.90
35027;DHT22;60696;51.426;6.934;2024-02-23T11:12:42;8.30;99.90
35027;DHT22;60696;51.426;6.934;2024-02-23T11:15:08;8.30;99.90
35027;DHT22;60696;51.426;6.934;2024-02-23T11:17:35;8.30;99.90
35027;DHT22;60696;51.426;6.934;2024-02-23T11:20:06;8.30;99.90
35027;DHT22;60696;51.426;6.934;2024-02-23T11:22:33;8.30;99.90
35027;DHT22;60696;51.426;6.934;2024-02-23T11:25:04;8.40;99.90
35027;DHT22;60696;51.426;6.934;2024-02-23T11:27:31;8.30;99.90
35027;DHT22;60696;51.426;6.934;2024-02-23T11:32:42;8.20;99.90
35027;DHT22;60696;51.426;6.934;2024-02-23T11:35:10;8.20;99.90
35027;DHT22;60696;51.426;6.934;2024-02-23T11:37:56;8.30;99.90
35027;DHT22;60696;51.426;6.934;2024-02-23T11:40:26;8.30;99.90
35027;DHT22;60696;51.426;6.934;2024-02-23T11:42:52;8.20;99.90
35027;DHT22;60696;51.426;6.934;2024-02-23T11:45:19;8.10;99.90
35027;DHT22;60696;51.426;6.934;2024-02-23T11:47:45;8.10;99.90
35027;DHT22;60696;51.426;6.934;2024-02-23T11:50:11;8.20;99.90
35027;DHT22;60696;51.426;6.934;2024-02-23T11:52:40;8.20;99.90
35027;DHT22;60696;51.426;6.934;2024-02-23T11:55:07;8.20;99.90
35027;DHT22;60696;51.426;6.934;2024-02-23T11:57:34;8.20;99.90
35027;DHT22;60696;51.426;6.934;2024-02-23T12:00:03;8.10;99.90
35027;DHT22;60696;51.426;6.934;2024-02-23T12:02:29;8.10;99.90
35027;DHT22;60696;51.426;6.934;2024-02-23T12:04:55;8.10;99.90
35027;DHT22;60696;51.426;6.934;2024-02-23T12:07:22;8.00;99.90
35027;DHT22;60696;51.426;6.934;2024-02-23T12:09:47;8.10;99.90
35027;DHT22;60696;51.426;6.934;2024-02-23T12:12:13;8.00;99.90
35027;DHT22;60696;51.426;6.934;2024-02-23T12:14:40;8.10;99.90
35027;DHT22;60696;51.426;6.934;2024-02-23T12:17:07;8.10;99.90
35027;DHT22;60696;51.426;6.934;2024-02-23T12:19:40;8.10;99.90
35027;DHT22;60696;51.426;6.934;2024-02-23T12:22:06;8.20;99.90
35027;DHT22;60696;51.426;6.934;2024-02-23T12:24:32;8.10;99.90
35027;DHT22;60696;51.426;6.934;2024-02-23T12:26:58;8.20;99.90
35027;DHT22;60696;51.426;6.934;2024-02-23T12:29:24;8.20;99.90
35027;DHT22;60696;51.426;6.934;2024-02-23T12:31:49;8.30;99.90
35027;DHT22;60696;51.426;6.934;2024-02-23T12:34:16;8.30;99.90
35027;DHT22;60696;51.426;6.934;2024-02-23T12:36:42;8.30;99.90
35027;DHT22;60696;51.426;6.934;2024-02-23T12:39:08;8.40;99.90
35027;DHT22;60696;51.426;6.934;2024-02-23T12:41:34;8.40;99.90
35027;DHT22;60696;51.426;6.934;2024-02-23T12:44:00;8.40;99.90
35027;DHT22;60696;51.426;6.934;2024-02-23T12:46:25;8.30;99.90
35027;DHT22;60696;51.426;6.934;2024-02-23T12:48:51;8.30;99.90
35027;DHT22;60696;51.426;6.934;2024-02-23T12:51:17;8.30;99.90
35027;DHT22;60696;51.426;6.934;2024-02-23T12:53:43;8.30;99.90
35027;DHT22;60696;51.426;6.934;2024-02-23T12:56:10;8.30;99.90
35027;DHT22;60696;51.426;6.934;2024-02-23T12:58:41;8.30;99.90
35027;DHT22;60696;51.426;6.934;2024-02-23T13:01:07;8.30;99.90
35027;DHT22;60696;51.426;6.934;2024-02-23T13:03:34;8.30;99.90
35027;DHT22;60696;51.426;6.934;2024-02-23T13:06:00;8.30;99.90
35027;DHT22;60696;51.426;6.934;2024-02-23T13:08:26;8.40;99.90
35027;DHT22;60696;51.426;6.934;2024-02-23T13:10:52;8.40;99.90
35027;DHT22;60696;51.426;6.934;2024-02-23T13:13:19;8.30;99.90
35027;DHT22;60696;51.426;6.934;2024-02-23T13:15:45;8.30;99.90
35027;DHT22;60696;51.426;6.934;2024-02-23T13:18:11;8.20;99.90
35027;DHT22;60696;51.426;6.934;2024-02-23T13:20:38;8.20;99.90
35027;DHT22;60696;51.426;6.934;2024-02-23T13:23:07;8.20;99.90
35027;DHT22;60696;51.426;6.934;2024-02-23T13:25:37;8.20;99.90
35027;DHT22;60696;51.426;6.934;2024-02-23T13:28:03;8.30;99.90
35027;DHT22;60696;51.426;6.934;2024-02-23T13:30:30;8.20;99.90
35027;DHT22;60696;51.426;6.934;2024-02-23T13:32:56;8.20;99.90
35027;DHT22;60696;51.426;6.934;2024-02-23T13:35:21;8.20;99.90
35027;DHT22;60696;51.426;6.934;2024-02-23T13:37:47;8.20;99.90
35027;DHT22;60696;51.426;6.934;2024-02-23T13:40:13;8.30;99.90
35027;DHT22;60696;51.426;6.934;2024-02-23T13:42:40;8.40;99.90
35027;DHT22;60696;51.426;6.934;2024-02-23T13:45:06;8.40;99.90
35027;DHT22;60696;51.426;6.934;2024-02-23T13:47:33;8.30;99.90
35027;DHT22;60696;51.426;6.934;2024-02-23T13:49:58;8.30;99.90
35027;DHT22;60696;51.426;6.934;2024-02-23T13:52:24;8.40;99.90
35027;DHT22;60696;51.426;6.934;2024-02-23T13:54:50;8.40;99.90
35027;DHT22;60696;51.426;6.934;2024-02-23T13:57:16;8.60;99.90
35027;DHT22;60696;51.426;6.934;2024-02-23T13:59:41;8.60;99.90
35027;DHT22;60696;51.426;6.934;2024-02-23T14:02:07;8.60;99.90
35027;DHT22;60696;51.426;6.934;2024-02-23T14:04:33;8.60;99.90
35027;DHT22;60696;51.426;6.934;2024-02-23T14:06:58;8.60;99.90
35027;DHT22;60696;51.426;6.934;2024-02-23T14:09:24;8.60;99.90
35027;DHT22;60696;51.426;6.934;2024-02-23T14:11:50;8.70;99.90
35027;DHT22;60696;51.426;6.934;2024-02-23T14:14:16;8.80;99.90
35027;DHT22;60696;51.426;6.934;2024-02-23T14:16:42;8.90;99.90
35027;DHT22;60696;51.426;6.934;2024-02-23T14:19:07;8.90;99.90
35027;DHT22;60696;51.426;6.934;2024-02-23T14:21:33;8.90;99.90
35027;DHT22;60696;51.426;6.934;2024-02-23T14:24:01;8.90;99.90
35027;DHT22;60696;51.426;6.934;2024-02-23T14:26:27;8.90;99.90
35027;DHT22;60696;51.426;6.934;2024-02-23T14:28:53;9.00;99.90
35027;DHT22;60696;51.426;6.934;2024-02-23T14:31:19;9.00;99.90
35027;DHT22;60696;51.426;6.934;2024-02-23T14:33:45;9.00;99.90
35027;DHT22;60696;51.426;6.934;2024-02-23T14:36:11;9.00;99.90
35027;DHT22;60696;51.426;6.934;2024-02-23T14:38:36;9.00;99.90
35027;DHT22;60696;51.426;6.934;2024-02-23T14:41:02;9.10;99.90
35027;DHT22;60696;51.426;6.934;2024-02-23T14:43:29;9.10;99.90
35027;DHT22;60696;51.426;6.934;2024-02-23T14:45:57;9.00;99.90
35027;DHT22;60696;51.426;6.934;2024-02-23T14:48:23;9.10;99.90
35027;DHT22;60696;51.426;6.934;2024-02-23T14:50:48;9.10;99.90
35027;DHT22;60696;51.426;6.934;2024-02-23T14:53:15;9.10;99.90
35027;DHT22;60696;51.426;6.934;2024-02-23T14:55:41;9.10;99.90
35027;DHT22;60696;51.426;6.934;2024-02-23T14:58:06;9.00;99.90
35027;DHT22;60696;51.426;6.934;2024-02-23T15:00:32;8.80;99.90
35027;DHT22;60696;51.426;6.934;2024-02-23T15:02:59;8.70;99.90
35027;DHT22;60696;51.426;6.934;2024-02-23T15:05:24;8.50;99.90
35027;DHT22;60696;51.426;6.934;2024-02-23T15:07:50;8.50;99.90
35027;DHT22;60696;51.426;6.934;2024-02-23T15:10:16;8.50;99.90
35027;DHT22;60696;51.426;6.934;2024-02-23T15:12:41;8.50;99.90
35027;DHT22;60696;51.426;6.934;2024-02-23T15:15:07;8.60;99.90
35027;DHT22;60696;51.426;6.934;2024-02-23T15:17:33;8.50;99.90
35027;DHT22;60696;51.426;6.934;2024-02-23T15:19:59;8.50;99.90
35027;DHT22;60696;51.426;6.934;2024-02-23T15:22:25;8.40;99.90
35027;DHT22;60696;51.426;6.934;2024-02-23T15:24:51;8.40;99.90
35027;DHT22;60696;51.426;6.934;2024-02-23T15:27:18;8.30;99.90
35027;DHT22;60696;51.426;6.934;2024-02-23T15:29:45;8.30;99.90
35027;DHT22;60696;51.426;6.934;2024-02-23T15:32:10;8.30;99.90
35027;DHT22;60696;51.426;6.934;2024-02-23T15:34:36;8.30;99.90
35027;DHT22;60696;51.426;6.934;2024-02-23T15:37:02;8.30;99.90
35027;DHT22;60696;51.426;6.934;2024-02-23T15:39:28;8.30;99.90
35027;DHT22;60696;51.426;6.934;2024-02-23T15:41:54;8.20;99.90
35027;DHT22;60696;51.426;6.934;2024-02-23T15:44:20;8.00;1.00
35027;DHT22;60696;51.426;6.934;2024-02-23T15:46:46;7.70;99.90
35027;DHT22;60696;51.426;6.934;2024-02-23T15:49:12;7.40;99.90
35027;DHT22;60696;51.426;6.934;2024-02-23T15:51:38;7.30;1.00
35027;DHT22;60696;51.426;6.934;2024-02-23T15:54:04;7.20;99.90
35027;DHT22;60696;51.426;6.934;2024-02-23T15:56:30;7.30;99.90
35027;DHT22;60696;51.426;6.934;2024-02-23T15:58:56;7.30;21.90
35027;DHT22;60696;51.426;6.934;2024-02-23T16:01:22;7.40;1.00
35027;DHT22;60696;51.426;6.934;2024-02-23T16:03:48;7.40;99.90
35027;DHT22;60696;51.426;6.934;2024-02-23T16:06:14;7.30;1.00
35027;DHT22;60696;51.426;6.934;2024-02-23T16:08:44;7.20;4.20
35027;DHT22;60696;51.426;6.934;2024-02-23T16:11:11;7.10;99.90
35027;DHT22;60696;51.426;6.934;2024-02-23T16:13:40;7.20;99.90
35027;DHT22;60696;51.426;6.934;2024-02-23T16:16:07;7.20;99.90
35027;DHT22;60696;51.426;6.934;2024-02-23T16:18:34;7.20;99.90
35027;DHT22;60696;51.426;6.934;2024-02-23T16:21:00;7.30;1.00
35027;DHT22;60696;51.426;6.934;2024-02-23T16:23:26;7.30;48.80
35027;DHT22;60696;51.426;6.934;2024-02-23T16:25:53;7.30;99.90
35027;DHT22;60696;51.426;6.934;2024-02-23T16:28:18;7.40;1.00
35027;DHT22;60696;51.426;6.934;2024-02-23T16:30:44;7.50;99.90
35027;DHT22;60696;51.426;6.934;2024-02-23T16:33:10;7.40;99.90
35027;DHT22;60696;51.426;6.934;2024-02-23T16:35:35;7.30;51.90
35027;DHT22;60696;51.426;6.934;2024-02-23T16:38:01;7.30;99.90
35027;DHT22;60696;51.426;6.934;2024-02-23T16:40:27;7.20;99.90
35027;DHT22;60696;51.426;6.934;2024-02-23T16:42:56;7.20;1.00
35027;DHT22;60696;51.426;6.934;2024-02-23T16:45:22;7.20;1.00
35027;DHT22;60696;51.426;6.934;2024-02-23T16:47:48;7.20;99.90
35027;DHT22;60696;51.426;6.934;2024-02-23T16:50:13;7.20;13.80
35027;DHT22;60696;51.426;6.934;2024-02-23T16:52:40;7.10;1.00
35027;DHT22;60696;51.426;6.934;2024-02-23T16:55:06;7.00;1.00
35027;DHT22;60696;51.426;6.934;2024-02-23T16:57:32;6.90;1.00
35027;DHT22;60696;51.426;6.934;2024-02-23T16:59:58;6.80;99.90
35027;DHT22;60696;51.426;6.934;2024-02-23T17:02:23;6.80;1.00
35027;DHT22;60696;51.426;6.934;2024-02-23T17:04:49;6.70;99.90
35027;DHT22;60696;51.426;6.934;2024-02-23T17:07:14;6.70;88.40
35027;DHT22;60696;51.426;6.934;2024-02-23T17:09:40;6.60;99.90
35027;DHT22;60696;51.426;6.934;2024-02-23T17:12:09;6.60;99.90
35027;DHT22;60696;51.426;6.934;2024-02-23T17:14:35;6.60;99.90
35027;DHT22;60696;51.426;6.934;2024-02-23T17:17:01;6.70;99.90
35027;DHT22;60696;51.426;6.934;2024-02-23T17:19:27;6.70;99.90
35027;DHT22;60696;51.426;6.934;2024-02-23T17:21:52;6.70;99.90
35027;DHT22;60696;51.426;6.934;2024-02-23T17:24:18;6.70;1.00
35027;DHT22;60696;51.426;6.934;2024-02-23T17:26:43;6.70;43.80
35027;DHT22;60696;51.426;6.934;2024-02-23T17:29:09;6.70;1.00
35027;DHT22;60696;51.426;6.934;2024-02-23T17:31:37;6.70;1.00
35027;DHT22;60696;51.426;6.934;2024-02-23T17:34:03;6.70;1.00
35027;DHT22;60696;51.426;6.934;2024-02-23T17:36:28;6.60;99.90
35027;DHT22;60696;51.426;6.934;2024-02-23T17:38:54;6.60;99.90
35027;DHT22;60696;51.426;6.934;2024-02-23T17:41:20;6.50;99.90
35027;DHT22;60696;51.426;6.934;2024-02-23T17:43:46;6.40;99.90
35027;DHT22;60696;51.426;6.934;2024-02-23T17:46:11;6.40;1.00
35027;DHT22;60696;51.426;6.934;2024-02-23T17:48:38;6.40;99.90
35027;DHT22;60696;51.426;6.934;2024-02-23T17:51:04;6.20;99.90
35027;DHT22;60696;51.426;6.934;2024-02-23T17:53:29;6.00;92.50
35027;DHT22;60696;51.426;6.934;2024-02-23T17:55:55;5.90;99.90
35027;DHT22;60696;51.426;6.934;2024-02-23T17:58:23;6.00;99.90
35027;DHT22;60696;51.426;6.934;2024-02-23T18:00:49;6.00;45.90
35027;DHT22;60696;51.426;6.934;2024-02-23T18:03:16;6.10;1.00
35027;DHT22;60696;51.426;6.934;2024-02-23T18:05:43;6.00;1.00
35027;DHT22;60696;51.426;6.934;2024-02-23T18:08:09;5.90;1.00
35027;DHT22;60696;51.426;6.934;2024-02-23T18:10:35;5.90;1.00
35027;DHT22;60696;51.426;6.934;2024-02-23T18:13:02;6.00;99.90
35027;DHT22;60696;51.426;6.934;2024-02-23T18:15:28;5.90;20.90
35027;DHT22;60696;51.426;6.934;2024-02-23T18:17:54;6.00;1.00
35027;DHT22;60696;51.426;6.934;2024-02-23T18:20:19;6.00;99.90
35027;DHT22;60696;51.426;6.934;2024-02-23T18:22:45;5.90;1.00
35027;DHT22;60696;51.426;6.934;2024-02-23T18:25:11;5.80;22.70
35027;DHT22;60696;51.426;6.934;2024-02-23T18:27:36;5.80;99.90
35027;DHT22;60696;51.426;6.934;2024-02-23T18:30:03;5.90;99.90
35027;DHT22;60696;51.426;6.934;2024-02-23T18:32:29;6.00;99.90
35027;DHT22;60696;51.426;6.934;2024-02-23T18:34:55;6.00;78.30
35027;DHT22;60696;51.426;6.934;2024-02-23T18:37:21;5.90;99.90
35027;DHT22;60696;51.426;6.934;2024-02-23T18:39:47;6.00;99.90
35027;DHT22;60696;51.426;6.934;2024-02-23T18:42:12;6.00;11.00
35027;DHT22;60696;51.426;6.934;2024-02-23T18:44:38;6.10;1.00
35027;DHT22;60696;51.426;6.934;2024-02-23T18:47:04;6.10;99.90
35027;DHT22;60696;51.426;6.934;2024-02-23T18:49:30;6.20;1.00
35027;DHT22;60696;51.426;6.934;2024-02-23T18:51:58;6.10;99.90
35027;DHT22;60696;51.426;6.934;2024-02-23T18:54:24;6.20;1.00
35027;DHT22;60696;51.426;6.934;2024-02-23T18:56:50;6.30;99.90
35027;DHT22;60696;51.426;6.934;2024-02-23T18:59:18;6.50;1.00
35027;DHT22;60696;51.426;6.934;2024-02-23T19:01:44;6.50;99.90
35027;DHT22;60696;51.426;6.934;2024-02-23T19:04:11;6.50;99.90
35027;DHT22;60696;51.426;6.934;2024-02-23T19:06:37;6.60;99.90
35027;DHT22;60696;51.426;6.934;2024-02-23T19:09:02;6.60;99.90
35027;DHT22;60696;51.426;6.934;2024-02-23T19:11:30;6.60;99.90
35027;DHT22;60696;51.426;6.934;2024-02-23T19:13:56;6.60;99.90
35027;DHT22;60696;51.426;6.934;2024-02-23T19:16:22;6.60;99.90
35027;DHT22;60696;51.426;6.934;2024-02-23T19:18:48;6.60;90.10
35027;DHT22;60696;51.426;6.934;2024-02-23T19:21:13;6.50;49.50
35027;DHT22;60696;51.426;6.934;2024-02-23T19:23:42;6.60;23.20
35027;DHT22;60696;51.426;6.934;2024-02-23T19:26:09;6.60;1.00
35027;DHT22;60696;51.426;6.934;2024-02-23T19:28:35;6.70;1.00
35027;DHT22;60696;51.426;6.934;2024-02-23T19:31:00;6.70;1.00
35027;DHT22;60696;51.426;6.934;2024-02-23T19:33:26;6.60;1.00
35027;DHT22;60696;51.426;6.934;2024-02-23T19:35:52;6.60;20.60
35027;DHT22;60696;51.426;6.934;2024-02-23T19:38:18;6.70;1.00
35027;DHT22;60696;51.426;6.934;2024-02-23T19:40:44;6.60;1.00
35027;DHT22;60696;51.426;6.934;2024-02-23T19:43:09;6.60;1.50
35027;DHT22;60696;51.426;6.934;2024-02-23T19:45:35;6.60;1.00
35027;DHT22;60696;51.426;6.934;2024-02-23T19:48:02;6.70;1.00
35027;DHT22;60696;51.426;6.934;2024-02-23T19:50:27;6.80;1.00
35027;DHT22;60696;51.426;6.934;2024-02-23T19:52:53;6.80;1.00
35027;DHT22;60696;51.426;6.934;2024-02-23T19:55:19;6.80;99.90
35027;DHT22;60696;51.426;6.934;2024-02-23T19:57:45;6.90;99.90
35027;DHT22;60696;51.426;6.934;2024-02-23T20:00:11;6.90;99.90
35027;DHT22;60696;51.426;6.934;2024-02-23T20:02:36;6.90;99.90
35027;DHT22;60696;51.426;6.934;2024-02-23T20:05:02;7.00;99.90
35027;DHT22;60696;51.426;6.934;2024-02-23T20:07:29;6.90;99.90
35027;DHT22;60696;51.426;6.934;2024-02-23T20:09:54;6.90;99.90
35027;DHT22;60696;51.426;6.934;2024-02-23T20:12:20;6.90;99.90
35027;DHT22;60696;51.426;6.934;2024-02-23T20:14:46;6.90;99.90
35027;DHT22;60696;51.426;6.934;2024-02-23T20:17:13;6.90;99.90
35027;DHT22;60696;51.426;6.934;2024-02-23T20:19:39;6.80;99.90
35027;DHT22;60696;51.426;6.934;2024-02-23T20:22:04;6.80;99.90
35027;DHT22;60696;51.426;6.934;2024-02-23T20:24:30;6.80;99.90
35027;DHT22;60696;51.426;6.934;2024-02-23T20:26:55;6.80;99.90
35027;DHT22;60696;51.426;6.934;2024-02-23T20:29:21;6.70;99.90
35027;DHT22;60696;51.426;6.934;2024-02-23T20:31:47;6.70;99.90
35027;DHT22;60696;51.426;6.934;2024-02-23T20:34:13;6.70;99.90
35027;DHT22;60696;51.426;6.934;2024-02-23T20:36:42;6.70;99.90
35027;DHT22;60696;51.426;6.934;2024-02-23T20:39:08;6.70;99.90
35027;DHT22;60696;51.426;6.934;2024-02-23T20:41:34;6.80;99.90
35027;DHT22;60696;51.426;6.934;2024-02-23T20:44:00;6.70;99.90
35027;DHT22;60696;51.426;6.934;2024-02-23T20:46:25;6.80;99.90
35027;DHT22;60696;51.426;6.934;2024-02-23T20:48:54;6.70;99.90